Latest Weather Observations for Redcliffe

IDQ60801

Issued at 7:51 am EST Friday 21 June 2019 (issued every 10 minutes, with the page automatically refreshed every 10 minutes)

About weather observations | Map of weather stations | Latest weather observations for QLD | Other Formats
Station Details ID: 040958 Name: REDCLIFFE Lat: -27.22 Lon: 153.09 Height: 12.6 m
Data from the previous 72 hours. | See also: Recent months at Redcliffe
Date/Time
EST
Temp
°C
App
Temp
°C
Dew
Point
°C
Rel
Hum
%
Delta-T
°C
Wind Press
QNH
hPa
Press
MSL
hPa
Rain since
9am
mm
Dir  Spd
km/h
Gust
km/h
Spd
kts
Gust
kts
21/07:30am 14.9 12.0 9.5 70 2.8 WSW 15 19 8 10 1019.1 1019.1 0.0
21/07:00am 14.9 11.9 9.3 69 2.9 WSW 15 24 8 13 1018.7 1018.7 0.0
21/06:30am 15.4 12.0 9.3 67 3.1 SW 17 22 9 12 1018.4 1018.4 0.0
21/06:00am 15.7 12.8 9.8 68 3.1 WSW 15 19 8 10 1018.2 1018.2 0.0
21/05:30am 16.1 13.0 10.4 69 3.0 SW 17 28 9 15 1018.1 1018.1 0.0
21/05:00am 16.2 13.7 11.2 72 2.7 WSW 15 20 8 11 1018.1 1018.1 0.0
21/04:30am 16.5 14.4 11.0 70 2.9 WSW 13 15 7 8 1018.2 1018.2 0.0
21/04:00am 16.7 14.6 11.2 70 3.0 SW 13 17 7 9 1018.2 1018.2 0.0
21/03:30am 16.5 14.9 11.6 73 2.7 SSW 11 17 6 9 1018.5 1018.5 0.0
21/03:00am 16.5 14.9 11.6 73 2.7 SSW 11 15 6 8 1018.5 1018.5 0.0
21/02:30am 16.7 14.4 11.6 72 2.8 SW 15 19 8 10 1018.6 1018.6 0.0
21/02:00am 16.6 15.0 11.5 72 2.8 SW 11 15 6 8 1018.8 1018.8 0.0
21/01:30am 16.8 15.2 11.5 71 2.9 SSW 11 15 6 8 1019.0 1019.0 0.0
21/01:00am 16.8 15.7 11.9 73 2.7 SW 9 13 5 7 1019.2 1019.2 0.0
21/12:30am 16.9 15.4 12.0 73 2.7 SSW 11 13 6 7 1019.3 1019.3 0.0
21/12:00am 17.0 15.2 12.1 73 2.7 SSW 13 17 7 9 1019.5 1019.5 0.0
 
Date/Time
EST
Temp
°C
App
Temp
°C
Dew
Point
°C
Rel
Hum
%
Delta-T
°C
Wind Press
QNH
hPa
Press
MSL
hPa
Rain since
9am
mm
Dir  Spd
km/h
Gust
km/h
Spd
kts
Gust
kts
20/11:30pm 17.1 15.6 12.0 72 2.8 SSW 11 17 6 9 1019.7 1019.7 0.0
20/11:00pm 17.1 15.6 12.0 72 2.8 SSW 11 15 6 8 1020.1 1020.1 0.0
20/10:30pm 16.9 15.5 12.2 74 2.6 SSW 11 15 6 8 1020.1 1020.1 0.0
20/10:00pm 16.7 15.2 11.8 73 2.7 SSW 11 15 6 8 1020.3 1020.3 0.0
20/09:30pm 17.2 15.8 12.1 72 2.8 SSW 11 15 6 8 1020.3 1020.3 0.0
20/09:00pm 17.6 16.2 12.3 71 2.9 SSW 11 13 6 7 1020.5 1020.5 0.0
20/08:30pm 17.8 15.6 12.0 69 3.2 S 15 17 8 9 1020.5 1020.5 0.0
20/08:00pm 18.1 16.4 12.3 69 3.2 S 13 15 7 8 1020.7 1020.7 0.0
20/07:30pm 18.2 15.7 12.2 68 3.3 S 17 19 9 10 1020.8 1020.8 0.0
20/07:00pm 18.4 16.2 12.2 67 3.4 S 15 17 8 9 1020.6 1020.6 0.0
20/06:30pm 18.5 16.4 12.3 67 3.4 S 15 17 8 9 1020.4 1020.4 0.0
20/06:00pm 18.5 16.8 12.3 67 3.4 S 13 17 7 9 1020.2 1020.2 0.0
20/05:30pm 18.6 16.7 11.9 65 3.7 S 13 17 7 9 1019.9 1019.9 0.0
20/05:00pm 18.9 16.1 11.5 62 4.0 S 17 19 9 10 1019.6 1019.6 0.0
20/04:30pm 19.0 16.8 12.0 64 3.9 S 15 17 8 9 1019.6 1019.6 0.0
20/04:00pm 19.2 16.6 12.0 63 4.0 SSE 17 19 9 10 1019.5 1019.5 0.0
20/03:30pm 19.6 17.4 10.9 57 4.7 SSE 13 15 7 8 1019.3 1019.3 0.0
20/03:00pm 19.7 17.0 10.4 55 5.0 S 15 17 8 9 1019.3 1019.3 0.0
20/02:30pm 20.1 16.9 9.9 52 5.5 S 17 19 9 10 1019.2 1019.2 0.0
20/02:00pm 19.8 16.7 10.2 54 5.2 S 17 20 9 11 1019.5 1019.5 0.0
20/01:30pm 19.4 15.5 9.6 53 5.2 S 20 26 11 14 1019.6 1019.6 0.0
20/01:00pm 19.3 16.1 10.0 55 5.0 S 17 20 9 11 1019.9 1019.9 0.0
20/12:30pm 18.6 15.9 10.2 58 4.5 S 15 24 8 13 1020.2 1020.2 0.0
20/12:00pm 18.5 16.2 10.3 59 4.4 SSW 13 19 7 10 1020.6 1020.6 0.0
20/11:30am 18.1 15.3 10.0 59 4.3 SSW 15 24 8 13 1021.0 1021.0 0.0
20/11:00am 17.5 14.2 9.7 60 4.1 SSW 17 24 9 13 1021.6 1021.6 0.0
20/10:30am 17.2 13.6 9.9 62 3.8 SSW 19 28 10 15 1021.6 1021.6 0.0
20/10:00am 17.2 14.0 10.1 63 3.7 SSW 17 26 9 14 1021.6 1021.6 0.0
20/09:30am 17.0 13.8 10.1 64 3.6 SSW 17 24 9 13 1021.7 1021.7 0.0
20/09:00am 16.5 13.2 9.7 64 3.5 SSW 17 22 9 12 1021.6 1021.6 0.0
20/08:30am 15.8 13.3 9.7 67 3.2 SW 13 22 7 12 1021.5 1021.5 0.0
20/08:00am 15.6 12.3 9.7 68 3.1 SW 17 26 9 14 1021.2 1021.2 0.0
20/07:30am 15.0 12.1 9.8 71 2.7 SSW 15 20 8 11 1020.9 1020.9 0.0
20/07:00am 14.7 11.5 10.1 74 2.4 SW 17 26 9 14 1020.7 1020.7 0.0
20/06:30am 14.6 11.5 10.2 75 2.3 SW 17 28 9 15 1020.5 1020.5 0.0
20/06:00am 14.6 11.5 10.4 76 2.2 SW 17 26 9 14 1019.9 1019.9 0.0
20/05:30am 14.7 12.0 10.5 76 2.2 SW 15 22 8 12 1019.6 1019.6 0.0
20/05:00am 14.9 12.4 10.9 77 2.1 SW 15 19 8 10 1019.4 1019.4 0.0
20/04:30am 14.8 12.7 11.0 78 2.0 SW 13 17 7 9 1019.2 1019.2 0.0
20/04:00am 14.8 12.7 11.0 78 2.0 SW 13 17 7 9 1019.0 1019.0 0.0
20/03:30am 14.5 12.3 10.9 79 1.9 SW 13 17 7 9 1019.2 1019.2 0.0
20/03:00am 14.2 12.1 11.2 82 1.6 SSW 13 19 7 10 1019.3 1019.3 0.0
20/02:30am 13.8 11.7 11.0 83 1.5 SSW 13 17 7 9 1019.5 1019.5 0.0
20/02:00am 14.0 11.9 11.0 82 1.6 SSW 13 19 7 10 1019.5 1019.5 0.0
20/01:30am 14.2 11.7 11.2 82 1.6 SW 15 19 8 10 1019.7 1019.7 0.0
20/01:00am 13.7 11.6 11.2 85 1.3 SW 13 17 7 9 1019.9 1019.9 0.0
20/12:30am 13.7 12.0 11.2 85 1.3 SW 11 17 6 9 1019.9 1019.9 0.0
20/12:00am 13.9 11.9 11.4 85 1.3 SW 13 17 7 9 1019.9 1019.9 0.0
 
Date/Time
EST
Temp
°C
App
Temp
°C
Dew
Point
°C
Rel
Hum
%
Delta-T
°C
Wind Press
QNH
hPa
Press
MSL
hPa
Rain since
9am
mm
Dir  Spd
km/h
Gust
km/h
Spd
kts
Gust
kts
19/11:30pm 14.0 12.4 11.5 85 1.3 SW 11 17 6 9 1020.1 1020.1 0.0
19/11:00pm 14.3 12.0 11.6 84 1.4 SSW 15 19 8 10 1020.1 1020.1 0.0
19/10:30pm 15.1 12.5 12.1 82 1.6 S 17 26 9 14 1020.1 1020.1 0.0
19/10:00pm 16.5 13.6 12.8 79 2.0 S 20 26 11 14 1019.9 1019.9 0.0
19/09:30pm 16.8 14.6 13.3 80 2.0 S 17 22 9 12 1019.9 1019.9 0.0
19/09:00pm 17.3 14.8 13.4 78 2.2 S 19 22 10 12 1019.8 1019.8 0.0
19/08:30pm 18.0 14.7 14.1 78 2.2 SSE 24 30 13 16 1019.6 1019.6 0.0
19/08:00pm 18.0 15.5 14.1 78 2.2 SSE 20 26 11 14 1019.7 1019.7 0.0
19/07:30pm 18.3 15.5 14.2 77 2.4 SE 22 28 12 15 1019.7 1019.7 0.0
19/07:00pm 18.5 16.1 14.4 77 2.4 SE 20 24 11 13 1019.6 1019.6 0.0
19/06:30pm 18.8 17.1 14.7 77 2.4 SE 17 20 9 11 1019.2 1019.2 0.0
19/06:00pm 18.8 17.0 14.5 76 2.5 ESE 17 19 9 10 1018.8 1018.8 0.0
19/05:30pm 18.7 17.0 13.6 72 2.9 ESE 15 19 8 10 1018.5 1018.5 0.0
19/05:00pm 19.1 17.4 12.6 66 3.6 ESE 13 15 7 8 1018.1 1018.1 0.0
19/04:30pm 19.5 17.8 12.3 63 4.0 ESE 13 15 7 8 1017.8 1017.8 0.0
19/04:00pm 19.8 17.7 11.3 58 4.7 ESE 13 15 7 8 1017.7 1017.7 0.0
19/03:30pm 20.2 17.9 10.3 53 5.3 ESE 13 15 7 8 1017.4 1017.4 0.0
19/03:00pm 20.6 18.5 11.0 54 5.3 ESE 13 15 7 8 1017.2 1017.2 0.0
19/02:30pm 20.9 18.5 10.1 50 5.8 ESE 13 15 7 8 1017.0 1017.0 0.0
19/02:00pm 20.7 17.6 10.2 51 5.7 ESE 17 17 9 9 1017.1 1017.1 0.0
19/01:30pm 21.1 18.8 10.3 50 5.9 ESE 13 17 7 9 1017.1 1017.1 0.0
19/01:00pm 21.6 19.7 9.2 45 6.6 E 9 13 5 7 1017.1 1017.1 0.0
19/12:30pm 21.0 19.2 9.6 48 6.1 E 9 11 5 6 1017.3 1017.3 0.0
19/12:00pm 22.0 20.4 8.9 43 7.0 SE 7 9 4 5 1017.6 1017.6 0.0
19/11:30am 21.9 19.5 8.8 43 7.0 SE 11 13 6 7 1018.0 1018.0 0.0
19/11:00am 21.4 18.5 8.3 43 6.9 SSE 13 15 7 8 1018.5 1018.5 0.0
19/10:30am 20.9 18.9 8.5 45 6.5 SSW 9 15 5 8 1018.8 1018.8 0.0
19/10:00am 19.2 17.6 10.2 56 4.8 WSW 9 15 5 8 1019.1 1019.1 0.0
19/09:30am 17.7 15.5 9.3 58 4.4 W 11 15 6 8 1019.1 1019.1 0.0
19/09:00am 16.7 14.9 9.4 62 3.8 W 9 13 5 7 1019.0 1019.0 0.0
19/08:30am 15.0 12.6 8.5 65 3.3 W 11 15 6 8 1018.7 1018.7 0.0
19/08:00am 13.2 10.7 8.1 71 2.5 W 11 13 6 7 1018.4 1018.4 0.0
19/07:30am 11.8 10.2 8.1 78 1.8 SW 6 9 3 5 1018.0 1018.0 0.0
19/07:00am 9.7 7.6 6.8 82 1.4 WSW 7 9 4 5 1018.0 1018.0 0.0
19/06:30am 9.3 7.3 6.4 82 1.3 WSW 6 7 3 4 1017.5 1017.5 0.0
19/06:00am 9.7 7.5 6.4 80 1.5 W 7 7 4 4 1017.3 1017.3 0.0
19/05:30am 10.1 7.6 6.6 79 1.6 WSW 9 11 5 6 1017.0 1017.0 0.0
19/05:00am 10.6 9.8 6.6 76 1.9 CALM 0 0 0 0 1016.8 1016.8 0.0
19/04:30am 11.1 10.5 7.4 78 1.8 CALM 0 6 0 3 1016.5 1016.5 0.0
19/04:00am 10.1 8.1 7.0 81 1.5 SW 7 11 4 6 1016.4 1016.4 0.0
19/03:30am 10.1 8.3 7.0 81 1.5 SW 6 7 3 4 1016.3 1016.3 0.0
19/03:00am 10.7 8.7 7.0 78 1.8 WSW 7 11 4 6 1016.5 1016.5 0.0
19/02:30am 10.6 8.6 6.9 78 1.8 WSW 7 9 4 5 1016.7 1016.7 0.0
19/02:00am 11.1 9.3 7.0 76 1.9 SW 6 7 3 4 1016.9 1016.9 0.0
19/01:30am 11.2 9.1 6.7 74 2.1 W 7 9 4 5 1017.0 1017.0 0.0
19/01:00am 11.0 8.7 7.3 78 1.8 W 9 11 5 6 1017.1 1017.1 0.0
19/12:30am 11.1 9.3 8.0 81 1.5 SW 7 11 4 6 1017.3 1017.3 0.0
19/12:00am 11.9 10.3 8.6 80 1.6 WSW 7 9 4 5 1017.3 1017.3 0.0
 
Date/Time
EST
Temp
°C
App
Temp
°C
Dew
Point
°C
Rel
Hum
%
Delta-T
°C
Wind Press
QNH
hPa
Press
MSL
hPa
Rain since
9am
mm
Dir  Spd
km/h
Gust
km/h
Spd
kts
Gust
kts
18/11:30pm 11.9 10.1 8.0 77 1.9 SW 7 9 4 5 1017.4 1017.4 0.0
18/11:00pm 12.5 10.6 7.6 72 2.4 WSW 7 9 4 5 1017.5 1017.5 0.0
18/10:30pm 12.9 11.2 7.6 70 2.6 SSW 6 7 3 4 1017.7 1017.7 0.0
18/10:00pm 13.3 10.9 7.1 66 3.0 SW 9 13 5 7 1017.5 1017.5 0.0
18/09:30pm 13.9 10.4 7.0 63 3.4 WNW 15 19 8 10 1017.7 1017.7 0.0
18/09:00pm 14.4 11.4 7.5 63 3.4 WNW 13 17 7 9 1017.7 1017.7 0.0
18/08:30pm 15.1 12.8 9.0 67 3.1 NW 11 15 6 8 1017.6 1017.6 0.0
18/08:00pm 15.3 12.4 9.7 69 2.9 NW 15 19 8 10 1017.7 1017.7 0.0
18/07:30pm 16.6 15.3 12.4 76 2.3 N 11 13 6 7 1017.4 1017.4 0.0
18/07:00pm 16.3 15.2 12.1 76 2.3 NNW 9 13 5 7 1017.2 1017.2 0.0
18/06:30pm 16.5 15.3 11.6 73 2.7 NNW 9 13 5 7 1017.0 1017.0 0.0
18/06:00pm 17.1 17.4 10.9 67 3.3 CALM 0 0 0 0 1016.7 1016.7 0.0
18/05:30pm 17.8 16.7 10.7 63 3.8 NNW 7 9 4 5 1016.2 1016.2 0.0
18/05:00pm 18.7 17.4 9.8 56 4.7 N 7 9 4 5 1015.8 1015.8 0.0
18/04:30pm 19.7 17.6 8.1 47 6.0 NNE 9 11 5 6 1015.7 1015.7 0.0
18/04:00pm 20.0 17.9 8.4 47 6.0 ENE 9 11 5 6 1015.4 1015.4 0.0
18/03:30pm 20.7 18.6 8.4 45 6.4 NE 9 13 5 7 1015.3 1015.3 0.0
18/03:00pm 21.1 18.1 6.2 38 7.5 ENE 11 11 6 6 1015.2 1015.2 0.0
18/02:30pm 21.4 18.7 5.7 36 7.8 ESE 9 9 5 5 1015.3 1015.3 0.0
18/02:00pm 21.5 18.4 5.4 35 8.0 SSE 11 13 6 7 1015.4 1015.4 0.0
18/01:30pm 21.4 18.3 5.7 36 7.8 SSE 11 13 6 7 1015.8 1015.8 0.0
18/01:00pm 21.4 17.8 4.9 34 8.1 SSE 13 15 7 8 1016.0 1016.0 0.0
18/12:30pm 21.3 17.5 5.6 36 7.8 SSE 15 15 8 8 1016.3 1016.3 0.0
18/12:00pm 21.3 17.0 7.2 40 7.2 S 19 22 10 12 1016.8 1016.8 0.0
18/11:30am 20.7 16.7 6.6 40 7.1 S 17 22 9 12 1017.4 1017.4 0.0
18/11:00am 20.0 16.2 7.4 44 6.4 S 17 20 9 11 1017.8 1017.8 0.0
18/10:30am 19.2 15.4 7.6 47 5.9 S 17 20 9 11 1018.1 1018.1 0.0
18/10:00am 18.0 15.0 7.7 51 5.2 SW 13 19 7 10 1018.4 1018.4 0.0
18/09:30am 16.2 14.5 8.4 60 4.0 SSW 7 11 4 6 1018.5 1018.5 0.0
18/09:00am 14.8 13.0 7.8 63 3.5 SW 7 9 4 5 1018.7 1018.7 0.2
18/08:30am 13.0 11.0 6.1 63 3.3 W 6 7 3 4 1018.4 1018.4 0.2
18/08:00am 11.6 9.3 5.9 68 2.7 W 7 11 4 6 1018.3 1018.3 0.2

Other formats

Comma delimited format used in spreadsheet applications
http://www.bom.gov.au/fwo/IDQ60801/IDQ60801.95591.axf

JavaScript Object Notation format (JSON) in row-major order
http://www.bom.gov.au/fwo/IDQ60801/IDQ60801.95591.json

Data quality

Most of these data are generated automatically and are frequently updated. Quality checks on data are not normally performed. It is possible for incorrect values to appear. Refer to information at About Latest Weather Observations and please check the disclaimer before using these data.